sensor_id;sensor_type;location;lat;lon;timestamp;P1;durP1;ratioP1;P2;durP2;ratioP2
71696;SDS011;59528;59.082;37.926;2022-07-22T00:00:14;3.47;;;2.13;;
71696;SDS011;59528;59.082;37.926;2022-07-22T00:02:40;2.17;;;1.97;;
71696;SDS011;59528;59.082;37.926;2022-07-22T00:05:05;4.77;;;2.00;;
71696;SDS011;59528;59.082;37.926;2022-07-22T00:07:31;3.10;;;1.87;;
71696;SDS011;59528;59.082;37.926;2022-07-22T00:09:57;4.20;;;2.00;;
71696;SDS011;59528;59.082;37.926;2022-07-22T00:12:22;2.57;;;1.80;;
71696;SDS011;59528;59.082;37.926;2022-07-22T00:14:48;3.60;;;2.20;;
71696;SDS011;59528;59.082;37.926;2022-07-22T00:17:14;2.30;;;1.87;;
71696;SDS011;59528;59.082;37.926;2022-07-22T00:19:39;1.70;;;1.50;;
71696;SDS011;59528;59.082;37.926;2022-07-22T00:22:05;4.60;;;2.03;;
71696;SDS011;59528;59.082;37.926;2022-07-22T00:24:30;3.67;;;1.83;;
71696;SDS011;59528;59.082;37.926;2022-07-22T00:26:56;1.90;;;1.70;;
71696;SDS011;59528;59.082;37.926;2022-07-22T00:29:24;2.03;;;1.53;;
71696;SDS011;59528;59.082;37.926;2022-07-22T00:31:50;2.00;;;1.43;;
71696;SDS011;59528;59.082;37.926;2022-07-22T00:34:16;4.23;;;1.80;;
71696;SDS011;59528;59.082;37.926;2022-07-22T00:36:42;3.90;;;1.73;;
71696;SDS011;59528;59.082;37.926;2022-07-22T00:39:07;3.50;;;1.50;;
71696;SDS011;59528;59.082;37.926;2022-07-22T00:41:33;2.77;;;1.80;;
71696;SDS011;59528;59.082;37.926;2022-07-22T00:43:59;4.90;;;1.80;;
71696;SDS011;59528;59.082;37.926;2022-07-22T00:46:28;4.23;;;1.87;;
71696;SDS011;59528;59.082;37.926;2022-07-22T00:48:54;4.07;;;1.60;;
71696;SDS011;59528;59.082;37.926;2022-07-22T00:51:20;3.30;;;1.60;;
71696;SDS011;59528;59.082;37.926;2022-07-22T00:53:46;3.13;;;1.60;;
71696;SDS011;59528;59.082;37.926;2022-07-22T00:56:12;2.40;;;1.77;;
71696;SDS011;59528;59.082;37.926;2022-07-22T00:58:38;3.43;;;1.60;;
71696;SDS011;59528;59.082;37.926;2022-07-22T01:01:04;4.33;;;1.70;;
71696;SDS011;59528;59.082;37.926;2022-07-22T01:03:29;3.30;;;1.50;;
71696;SDS011;59528;59.082;37.926;2022-07-22T01:05:55;2.70;;;1.50;;
71696;SDS011;59528;59.082;37.926;2022-07-22T01:08:21;4.93;;;1.93;;
71696;SDS011;59528;59.082;37.926;2022-07-22T01:10:46;4.20;;;1.93;;
71696;SDS011;59528;59.082;37.926;2022-07-22T01:13:12;2.23;;;1.67;;
71696;SDS011;59528;59.082;37.926;2022-07-22T01:15:37;2.50;;;1.50;;
71696;SDS011;59528;59.082;37.926;2022-07-22T01:18:03;2.47;;;1.60;;
71696;SDS011;59528;59.082;37.926;2022-07-22T01:20:29;7.73;;;1.80;;
71696;SDS011;59528;59.082;37.926;2022-07-22T01:22:55;4.37;;;2.00;;
71696;SDS011;59528;59.082;37.926;2022-07-22T01:25:20;1.80;;;1.70;;
71696;SDS011;59528;59.082;37.926;2022-07-22T01:27:46;3.93;;;1.80;;
71696;SDS011;59528;59.082;37.926;2022-07-22T01:30:12;2.13;;;1.53;;
71696;SDS011;59528;59.082;37.926;2022-07-22T01:32:38;4.73;;;2.00;;
71696;SDS011;59528;59.082;37.926;2022-07-22T01:35:04;2.20;;;1.80;;
71696;SDS011;59528;59.082;37.926;2022-07-22T01:37:33;2.30;;;1.77;;
71696;SDS011;59528;59.082;37.926;2022-07-22T01:39:59;3.43;;;1.70;;
71696;SDS011;59528;59.082;37.926;2022-07-22T01:42:25;4.00;;;1.87;;
71696;SDS011;59528;59.082;37.926;2022-07-22T01:44:51;2.07;;;1.63;;
71696;SDS011;59528;59.082;37.926;2022-07-22T01:47:17;2.57;;;1.87;;
71696;SDS011;59528;59.082;37.926;2022-07-22T01:49:42;3.60;;;2.60;;
71696;SDS011;59528;59.082;37.926;2022-07-22T01:52:08;4.60;;;2.83;;
71696;SDS011;59528;59.082;37.926;2022-07-22T01:54:37;2.60;;;2.30;;
71696;SDS011;59528;59.082;37.926;2022-07-22T01:57:03;7.50;;;2.40;;
71696;SDS011;59528;59.082;37.926;2022-07-22T01:59:28;3.93;;;2.60;;
71696;SDS011;59528;59.082;37.926;2022-07-22T02:01:54;2.87;;;2.00;;
71696;SDS011;59528;59.082;37.926;2022-07-22T02:04:20;2.67;;;2.20;;
71696;SDS011;59528;59.082;37.926;2022-07-22T02:06:45;6.87;;;2.60;;
71696;SDS011;59528;59.082;37.926;2022-07-22T02:09:12;3.30;;;2.40;;
71696;SDS011;59528;59.082;37.926;2022-07-22T02:11:41;2.93;;;2.30;;
71696;SDS011;59528;59.082;37.926;2022-07-22T02:14:08;6.13;;;2.23;;
71696;SDS011;59528;59.082;37.926;2022-07-22T02:16:33;2.40;;;2.20;;
71696;SDS011;59528;59.082;37.926;2022-07-22T02:18:59;2.57;;;1.90;;
71696;SDS011;59528;59.082;37.926;2022-07-22T02:21:24;5.23;;;2.20;;
71696;SDS011;59528;59.082;37.926;2022-07-22T02:23:56;4.03;;;2.07;;
71696;SDS011;59528;59.082;37.926;2022-07-22T02:26:22;2.57;;;1.90;;
71696;SDS011;59528;59.082;37.926;2022-07-22T02:28:48;5.07;;;2.53;;
71696;SDS011;59528;59.082;37.926;2022-07-22T02:31:13;4.73;;;1.80;;
71696;SDS011;59528;59.082;37.926;2022-07-22T02:33:39;3.53;;;2.17;;
71696;SDS011;59528;59.082;37.926;2022-07-22T02:36:04;2.90;;;2.00;;
71696;SDS011;59528;59.082;37.926;2022-07-22T02:38:32;2.57;;;2.10;;
71696;SDS011;59528;59.082;37.926;2022-07-22T02:40:58;2.00;;;1.87;;
71696;SDS011;59528;59.082;37.926;2022-07-22T02:43:24;2.27;;;2.07;;
71696;SDS011;59528;59.082;37.926;2022-07-22T02:45:53;2.37;;;1.80;;
71696;SDS011;59528;59.082;37.926;2022-07-22T02:48:18;2.10;;;1.90;;
71696;SDS011;59528;59.082;37.926;2022-07-22T02:50:45;2.40;;;1.97;;
71696;SDS011;59528;59.082;37.926;2022-07-22T02:53:10;3.10;;;1.90;;
71696;SDS011;59528;59.082;37.926;2022-07-22T02:55:37;4.30;;;2.40;;
71696;SDS011;59528;59.082;37.926;2022-07-22T02:58:07;2.40;;;2.17;;
71696;SDS011;59528;59.082;37.926;2022-07-22T03:00:34;3.83;;;2.27;;
71696;SDS011;59528;59.082;37.926;2022-07-22T03:03:00;3.23;;;2.57;;
71696;SDS011;59528;59.082;37.926;2022-07-22T03:05:26;3.90;;;2.67;;
71696;SDS011;59528;59.082;37.926;2022-07-22T03:07:59;4.93;;;3.10;;
71696;SDS011;59528;59.082;37.926;2022-07-22T03:10:25;4.00;;;2.50;;
71696;SDS011;59528;59.082;37.926;2022-07-22T03:12:50;2.73;;;2.23;;
71696;SDS011;59528;59.082;37.926;2022-07-22T03:15:16;3.60;;;2.30;;
71696;SDS011;59528;59.082;37.926;2022-07-22T03:17:42;3.17;;;2.10;;
71696;SDS011;59528;59.082;37.926;2022-07-22T03:20:08;8.07;;;4.97;;
71696;SDS011;59528;59.082;37.926;2022-07-22T03:22:34;8.13;;;5.63;;
71696;SDS011;59528;59.082;37.926;2022-07-22T03:25:00;8.20;;;5.87;;
71696;SDS011;59528;59.082;37.926;2022-07-22T03:27:26;7.07;;;4.80;;
71696;SDS011;59528;59.082;37.926;2022-07-22T03:29:52;3.47;;;3.17;;
71696;SDS011;59528;59.082;37.926;2022-07-22T03:32:18;4.13;;;2.53;;
71696;SDS011;59528;59.082;37.926;2022-07-22T03:34:47;4.27;;;2.63;;
71696;SDS011;59528;59.082;37.926;2022-07-22T03:37:12;4.90;;;2.57;;
71696;SDS011;59528;59.082;37.926;2022-07-22T03:39:40;5.27;;;2.10;;
71696;SDS011;59528;59.082;37.926;2022-07-22T03:42:06;4.00;;;2.37;;
71696;SDS011;59528;59.082;37.926;2022-07-22T03:44:38;5.37;;;2.23;;
71696;SDS011;59528;59.082;37.926;2022-07-22T03:47:04;2.40;;;2.17;;
71696;SDS011;59528;59.082;37.926;2022-07-22T03:49:30;2.70;;;2.00;;
71696;SDS011;59528;59.082;37.926;2022-07-22T03:51:57;3.17;;;2.47;;
71696;SDS011;59528;59.082;37.926;2022-07-22T03:54:24;4.07;;;2.30;;
71696;SDS011;59528;59.082;37.926;2022-07-22T03:56:49;6.87;;;2.70;;
71696;SDS011;59528;59.082;37.926;2022-07-22T03:59:16;2.93;;;2.13;;
71696;SDS011;59528;59.082;37.926;2022-07-22T04:01:42;5.17;;;2.50;;
71696;SDS011;59528;59.082;37.926;2022-07-22T04:04:09;4.47;;;2.67;;
71696;SDS011;59528;59.082;37.926;2022-07-22T04:06:38;3.80;;;2.40;;
71696;SDS011;59528;59.082;37.926;2022-07-22T04:09:10;5.67;;;2.97;;
71696;SDS011;59528;59.082;37.926;2022-07-22T04:11:35;5.80;;;2.43;;
71696;SDS011;59528;59.082;37.926;2022-07-22T04:14:01;4.93;;;2.50;;
71696;SDS011;59528;59.082;37.926;2022-07-22T04:16:26;3.10;;;2.43;;
71696;SDS011;59528;59.082;37.926;2022-07-22T04:19:03;4.57;;;2.67;;
71696;SDS011;59528;59.082;37.926;2022-07-22T04:21:58;4.47;;;3.20;;
71696;SDS011;59528;59.082;37.926;2022-07-22T04:24:27;3.40;;;2.50;;
71696;SDS011;59528;59.082;37.926;2022-07-22T04:26:53;4.87;;;3.70;;
71696;SDS011;59528;59.082;37.926;2022-07-22T04:29:19;7.40;;;3.10;;
71696;SDS011;59528;59.082;37.926;2022-07-22T04:31:44;4.27;;;2.90;;
71696;SDS011;59528;59.082;37.926;2022-07-22T04:34:13;5.43;;;2.80;;
71696;SDS011;59528;59.082;37.926;2022-07-22T04:36:42;5.43;;;3.07;;
71696;SDS011;59528;59.082;37.926;2022-07-22T04:39:08;5.63;;;2.80;;
71696;SDS011;59528;59.082;37.926;2022-07-22T04:41:34;3.63;;;2.57;;
71696;SDS011;59528;59.082;37.926;2022-07-22T04:44:00;3.73;;;2.53;;
71696;SDS011;59528;59.082;37.926;2022-07-22T04:46:28;2.47;;;2.27;;
71696;SDS011;59528;59.082;37.926;2022-07-22T04:48:55;3.33;;;2.30;;
71696;SDS011;59528;59.082;37.926;2022-07-22T04:51:21;5.10;;;3.20;;
71696;SDS011;59528;59.082;37.926;2022-07-22T04:53:52;3.43;;;2.90;;
71696;SDS011;59528;59.082;37.926;2022-07-22T04:56:20;3.67;;;2.47;;
71696;SDS011;59528;59.082;37.926;2022-07-22T04:58:45;2.70;;;2.40;;
71696;SDS011;59528;59.082;37.926;2022-07-22T05:01:11;7.87;;;2.87;;
71696;SDS011;59528;59.082;37.926;2022-07-22T05:03:40;4.47;;;2.80;;
71696;SDS011;59528;59.082;37.926;2022-07-22T05:06:06;7.17;;;2.70;;
71696;SDS011;59528;59.082;37.926;2022-07-22T05:08:39;3.33;;;2.60;;
71696;SDS011;59528;59.082;37.926;2022-07-22T05:11:06;5.23;;;2.37;;
71696;SDS011;59528;59.082;37.926;2022-07-22T05:13:33;4.20;;;2.50;;
71696;SDS011;59528;59.082;37.926;2022-07-22T05:16:07;6.03;;;2.63;;
71696;SDS011;59528;59.082;37.926;2022-07-22T05:18:53;3.77;;;2.40;;
71696;SDS011;59528;59.082;37.926;2022-07-22T05:21:52;5.17;;;2.73;;
71696;SDS011;59528;59.082;37.926;2022-07-22T05:24:44;3.13;;;2.23;;
71696;SDS011;59528;59.082;37.926;2022-07-22T05:27:10;4.43;;;2.33;;
71696;SDS011;59528;59.082;37.926;2022-07-22T05:29:37;5.07;;;2.80;;
71696;SDS011;59528;59.082;37.926;2022-07-22T05:32:05;3.93;;;2.40;;
71696;SDS011;59528;59.082;37.926;2022-07-22T05:35:08;4.13;;;2.30;;
71696;SDS011;59528;59.082;37.926;2022-07-22T05:38:12;5.03;;;2.30;;
71696;SDS011;59528;59.082;37.926;2022-07-22T05:42:00;4.20;;;2.63;;
71696;SDS011;59528;59.082;37.926;2022-07-22T05:45:28;3.87;;;2.43;;
71696;SDS011;59528;59.082;37.926;2022-07-22T05:48:38;3.27;;;2.60;;
71696;SDS011;59528;59.082;37.926;2022-07-22T05:51:09;3.60;;;2.40;;
71696;SDS011;59528;59.082;37.926;2022-07-22T05:53:35;3.13;;;2.40;;
71696;SDS011;59528;59.082;37.926;2022-07-22T05:56:00;3.30;;;2.80;;
71696;SDS011;59528;59.082;37.926;2022-07-22T05:58:28;3.03;;;2.33;;
71696;SDS011;59528;59.082;37.926;2022-07-22T06:00:54;6.67;;;2.40;;
71696;SDS011;59528;59.082;37.926;2022-07-22T06:03:21;5.33;;;2.70;;
71696;SDS011;59528;59.082;37.926;2022-07-22T06:05:47;5.23;;;2.37;;
71696;SDS011;59528;59.082;37.926;2022-07-22T06:08:13;7.37;;;2.30;;
71696;SDS011;59528;59.082;37.926;2022-07-22T06:10:45;2.83;;;2.50;;
71696;SDS011;59528;59.082;37.926;2022-07-22T06:13:11;5.53;;;2.40;;
71696;SDS011;59528;59.082;37.926;2022-07-22T06:15:39;7.20;;;3.03;;
71696;SDS011;59528;59.082;37.926;2022-07-22T06:18:05;5.00;;;2.77;;
71696;SDS011;59528;59.082;37.926;2022-07-22T06:20:30;7.07;;;2.63;;
71696;SDS011;59528;59.082;37.926;2022-07-22T06:22:56;5.17;;;2.43;;
71696;SDS011;59528;59.082;37.926;2022-07-22T06:25:23;4.57;;;2.63;;
71696;SDS011;59528;59.082;37.926;2022-07-22T06:27:49;3.37;;;2.87;;
71696;SDS011;59528;59.082;37.926;2022-07-22T06:30:15;3.60;;;2.60;;
71696;SDS011;59528;59.082;37.926;2022-07-22T06:32:40;5.30;;;3.00;;
71696;SDS011;59528;59.082;37.926;2022-07-22T06:35:07;4.40;;;2.80;;
71696;SDS011;59528;59.082;37.926;2022-07-22T06:37:32;5.77;;;2.70;;
71696;SDS011;59528;59.082;37.926;2022-07-22T06:39:58;4.90;;;2.87;;
71696;SDS011;59528;59.082;37.926;2022-07-22T06:42:38;7.60;;;3.10;;
71696;SDS011;59528;59.082;37.926;2022-07-22T06:45:22;3.40;;;2.63;;
71696;SDS011;59528;59.082;37.926;2022-07-22T06:48:04;4.47;;;2.90;;
71696;SDS011;59528;59.082;37.926;2022-07-22T06:50:30;6.30;;;2.83;;
71696;SDS011;59528;59.082;37.926;2022-07-22T06:52:58;3.87;;;2.90;;
71696;SDS011;59528;59.082;37.926;2022-07-22T06:55:24;4.67;;;3.10;;
71696;SDS011;59528;59.082;37.926;2022-07-22T06:58:00;6.97;;;3.63;;
71696;SDS011;59528;59.082;37.926;2022-07-22T07:00:27;5.57;;;3.70;;
71696;SDS011;59528;59.082;37.926;2022-07-22T07:03:12;6.33;;;3.83;;
71696;SDS011;59528;59.082;37.926;2022-07-22T07:05:38;6.30;;;3.97;;
71696;SDS011;59528;59.082;37.926;2022-07-22T07:08:04;6.37;;;3.43;;
71696;SDS011;59528;59.082;37.926;2022-07-22T07:10:30;6.20;;;3.27;;
71696;SDS011;59528;59.082;37.926;2022-07-22T07:13:03;8.33;;;4.00;;
71696;SDS011;59528;59.082;37.926;2022-07-22T07:15:40;7.10;;;3.77;;
71696;SDS011;59528;59.082;37.926;2022-07-22T07:18:08;7.23;;;3.43;;
71696;SDS011;59528;59.082;37.926;2022-07-22T07:20:33;7.23;;;3.77;;
71696;SDS011;59528;59.082;37.926;2022-07-22T07:23:00;5.67;;;3.73;;
71696;SDS011;59528;59.082;37.926;2022-07-22T07:25:29;7.00;;;3.67;;
71696;SDS011;59528;59.082;37.926;2022-07-22T07:27:55;6.00;;;4.13;;
71696;SDS011;59528;59.082;37.926;2022-07-22T07:30:41;6.93;;;4.30;;
71696;SDS011;59528;59.082;37.926;2022-07-22T07:33:07;5.90;;;4.20;;
71696;SDS011;59528;59.082;37.926;2022-07-22T07:35:32;8.53;;;4.00;;
71696;SDS011;59528;59.082;37.926;2022-07-22T07:37:59;5.97;;;4.00;;
71696;SDS011;59528;59.082;37.926;2022-07-22T07:40:25;7.90;;;4.40;;
71696;SDS011;59528;59.082;37.926;2022-07-22T07:42:51;5.33;;;4.07;;
71696;SDS011;59528;59.082;37.926;2022-07-22T07:45:17;4.63;;;4.10;;
71696;SDS011;59528;59.082;37.926;2022-07-22T07:47:43;6.77;;;4.40;;
71696;SDS011;59528;59.082;37.926;2022-07-22T07:50:10;5.97;;;3.97;;
71696;SDS011;59528;59.082;37.926;2022-07-22T07:52:41;5.90;;;4.10;;
71696;SDS011;59528;59.082;37.926;2022-07-22T07:55:08;4.57;;;3.97;;
71696;SDS011;59528;59.082;37.926;2022-07-22T07:57:35;6.10;;;4.10;;
71696;SDS011;59528;59.082;37.926;2022-07-22T08:00:05;8.63;;;4.23;;
71696;SDS011;59528;59.082;37.926;2022-07-22T08:02:39;9.23;;;4.20;;
71696;SDS011;59528;59.082;37.926;2022-07-22T08:05:07;4.87;;;4.00;;
71696;SDS011;59528;59.082;37.926;2022-07-22T08:07:33;4.57;;;3.97;;
71696;SDS011;59528;59.082;37.926;2022-07-22T08:09:59;7.53;;;4.33;;
71696;SDS011;59528;59.082;37.926;2022-07-22T08:12:51;5.13;;;4.33;;
71696;SDS011;59528;59.082;37.926;2022-07-22T08:15:30;5.30;;;4.67;;
71696;SDS011;59528;59.082;37.926;2022-07-22T08:17:56;6.57;;;4.13;;
71696;SDS011;59528;59.082;37.926;2022-07-22T08:20:23;5.60;;;4.50;;
71696;SDS011;59528;59.082;37.926;2022-07-22T08:22:52;9.13;;;3.87;;
71696;SDS011;59528;59.082;37.926;2022-07-22T08:25:18;7.20;;;4.40;;
71696;SDS011;59528;59.082;37.926;2022-07-22T08:27:44;7.90;;;4.20;;
71696;SDS011;59528;59.082;37.926;2022-07-22T08:30:10;4.73;;;4.23;;
71696;SDS011;59528;59.082;37.926;2022-07-22T08:32:36;6.50;;;4.00;;
71696;SDS011;59528;59.082;37.926;2022-07-22T08:35:03;6.93;;;3.97;;
71696;SDS011;59528;59.082;37.926;2022-07-22T08:37:29;4.37;;;3.97;;
71696;SDS011;59528;59.082;37.926;2022-07-22T08:39:58;6.13;;;4.20;;
71696;SDS011;59528;59.082;37.926;2022-07-22T08:42:24;6.20;;;4.30;;
71696;SDS011;59528;59.082;37.926;2022-07-22T08:44:50;5.67;;;4.40;;
71696;SDS011;59528;59.082;37.926;2022-07-22T08:47:21;5.63;;;4.03;;
71696;SDS011;59528;59.082;37.926;2022-07-22T08:50:13;7.20;;;4.27;;
71696;SDS011;59528;59.082;37.926;2022-07-22T08:52:49;8.57;;;4.27;;
71696;SDS011;59528;59.082;37.926;2022-07-22T08:55:14;5.77;;;4.50;;
71696;SDS011;59528;59.082;37.926;2022-07-22T08:57:44;5.30;;;4.27;;
71696;SDS011;59528;59.082;37.926;2022-07-22T09:00:11;4.80;;;4.40;;
71696;SDS011;59528;59.082;37.926;2022-07-22T09:02:38;4.33;;;3.93;;
71696;SDS011;59528;59.082;37.926;2022-07-22T09:05:08;7.00;;;4.60;;
71696;SDS011;59528;59.082;37.926;2022-07-22T09:07:35;7.50;;;4.70;;
71696;SDS011;59528;59.082;37.926;2022-07-22T09:10:08;6.90;;;4.70;;
71696;SDS011;59528;59.082;37.926;2022-07-22T09:12:57;5.13;;;4.57;;
71696;SDS011;59528;59.082;37.926;2022-07-22T09:15:56;5.70;;;4.80;;
71696;SDS011;59528;59.082;37.926;2022-07-22T09:18:44;5.27;;;4.77;;
71696;SDS011;59528;59.082;37.926;2022-07-22T09:21:28;5.73;;;4.70;;
71696;SDS011;59528;59.082;37.926;2022-07-22T09:24:27;6.53;;;5.10;;
71696;SDS011;59528;59.082;37.926;2022-07-22T09:26:54;7.30;;;4.90;;
71696;SDS011;59528;59.082;37.926;2022-07-22T09:29:30;5.00;;;4.47;;
71696;SDS011;59528;59.082;37.926;2022-07-22T09:32:36;5.37;;;4.83;;
71696;SDS011;59528;59.082;37.926;2022-07-22T09:35:23;5.43;;;4.93;;
71696;SDS011;59528;59.082;37.926;2022-07-22T09:38:01;6.03;;;4.83;;
71696;SDS011;59528;59.082;37.926;2022-07-22T09:40:29;5.37;;;4.87;;
71696;SDS011;59528;59.082;37.926;2022-07-22T09:42:59;8.13;;;4.60;;
71696;SDS011;59528;59.082;37.926;2022-07-22T09:45:26;6.10;;;4.83;;
71696;SDS011;59528;59.082;37.926;2022-07-22T09:47:53;5.13;;;4.60;;
71696;SDS011;59528;59.082;37.926;2022-07-22T09:50:38;5.40;;;4.90;;
71696;SDS011;59528;59.082;37.926;2022-07-22T09:53:30;6.73;;;5.27;;
71696;SDS011;59528;59.082;37.926;2022-07-22T09:56:03;6.73;;;4.67;;
71696;SDS011;59528;59.082;37.926;2022-07-22T09:58:29;4.97;;;4.57;;
71696;SDS011;59528;59.082;37.926;2022-07-22T10:00:57;9.43;;;5.03;;
71696;SDS011;59528;59.082;37.926;2022-07-22T10:03:25;5.50;;;5.00;;
71696;SDS011;59528;59.082;37.926;2022-07-22T10:05:51;6.73;;;4.87;;
71696;SDS011;59528;59.082;37.926;2022-07-22T10:08:17;5.10;;;4.70;;
71696;SDS011;59528;59.082;37.926;2022-07-22T10:10:43;5.37;;;4.73;;
71696;SDS011;59528;59.082;37.926;2022-07-22T10:13:09;5.38;;;4.88;;
71696;SDS011;59528;59.082;37.926;2022-07-22T10:15:35;6.75;;;5.25;;
71696;SDS011;59528;59.082;37.926;2022-07-22T10:18:13;5.55;;;4.95;;
71696;SDS011;59528;59.082;37.926;2022-07-22T10:20:39;7.15;;;4.78;;
71696;SDS011;59528;59.082;37.926;2022-07-22T10:23:07;7.15;;;5.15;;
71696;SDS011;59528;59.082;37.926;2022-07-22T10:28:21;5.15;;;4.65;;
71696;SDS011;59528;59.082;37.926;2022-07-22T10:30:47;5.25;;;4.72;;
71696;SDS011;59528;59.082;37.926;2022-07-22T10:33:14;5.95;;;4.78;;
71696;SDS011;59528;59.082;37.926;2022-07-22T10:38:11;5.45;;;4.93;;
71696;SDS011;59528;59.082;37.926;2022-07-22T10:40:54;7.18;;;5.00;;
71696;SDS011;59528;59.082;37.926;2022-07-22T10:43:30;6.25;;;4.80;;
71696;SDS011;59528;59.082;37.926;2022-07-22T10:45:57;5.20;;;4.80;;
71696;SDS011;59528;59.082;37.926;2022-07-22T10:51:15;5.43;;;4.93;;
71696;SDS011;59528;59.082;37.926;2022-07-22T10:53:47;5.53;;;4.80;;
71696;SDS011;59528;59.082;37.926;2022-07-22T10:56:18;5.20;;;4.80;;
71696;SDS011;59528;59.082;37.926;2022-07-22T10:58:48;6.35;;;5.07;;
71696;SDS011;59528;59.082;37.926;2022-07-22T11:01:15;5.65;;;4.90;;
71696;SDS011;59528;59.082;37.926;2022-07-22T11:03:42;5.70;;;5.20;;
71696;SDS011;59528;59.082;37.926;2022-07-22T11:08:40;5.60;;;5.10;;
71696;SDS011;59528;59.082;37.926;2022-07-22T11:11:06;5.60;;;5.10;;
71696;SDS011;59528;59.082;37.926;2022-07-22T11:13:32;5.45;;;5.03;;
71696;SDS011;59528;59.082;37.926;2022-07-22T11:16:19;5.43;;;4.93;;
71696;SDS011;59528;59.082;37.926;2022-07-22T11:18:44;5.45;;;4.95;;
71696;SDS011;59528;59.082;37.926;2022-07-22T11:21:10;4.90;;;4.45;;
71696;SDS011;59528;59.082;37.926;2022-07-22T11:23:39;6.57;;;5.10;;
71696;SDS011;59528;59.082;37.926;2022-07-22T11:26:05;8.07;;;4.75;;
71696;SDS011;59528;59.082;37.926;2022-07-22T11:28:30;7.32;;;4.97;;
71696;SDS011;59528;59.082;37.926;2022-07-22T11:31:06;7.10;;;4.68;;
71696;SDS011;59528;59.082;37.926;2022-07-22T11:33:31;5.22;;;4.75;;
71696;SDS011;59528;59.082;37.926;2022-07-22T11:36:04;5.18;;;4.40;;
71696;SDS011;59528;59.082;37.926;2022-07-22T11:38:41;5.43;;;4.72;;
71696;SDS011;59528;59.082;37.926;2022-07-22T11:41:07;4.90;;;4.40;;
71696;SDS011;59528;59.082;37.926;2022-07-22T11:43:40;5.80;;;4.72;;
71696;SDS011;59528;59.082;37.926;2022-07-22T11:46:05;5.57;;;4.95;;
71696;SDS011;59528;59.082;37.926;2022-07-22T11:48:31;4.78;;;4.38;;
71696;SDS011;59528;59.082;37.926;2022-07-22T11:51:00;6.72;;;5.00;;
71696;SDS011;59528;59.082;37.926;2022-07-22T11:53:26;8.45;;;5.15;;
71696;SDS011;59528;59.082;37.926;2022-07-22T11:55:56;5.07;;;4.65;;
71696;SDS011;59528;59.082;37.926;2022-07-22T11:58:34;9.13;;;4.68;;
71696;SDS011;59528;59.082;37.926;2022-07-22T12:01:01;14.93;;;4.93;;
71696;SDS011;59528;59.082;37.926;2022-07-22T12:03:26;6.57;;;4.55;;
71696;SDS011;59528;59.082;37.926;2022-07-22T12:05:53;5.05;;;4.60;;
71696;SDS011;59528;59.082;37.926;2022-07-22T12:08:18;5.13;;;4.68;;
71696;SDS011;59528;59.082;37.926;2022-07-22T12:10:44;5.18;;;4.72;;
71696;SDS011;59528;59.082;37.926;2022-07-22T12:13:10;7.22;;;4.50;;
71696;SDS011;59528;59.082;37.926;2022-07-22T12:15:36;4.82;;;4.43;;
71696;SDS011;59528;59.082;37.926;2022-07-22T12:18:15;7.18;;;4.70;;
71696;SDS011;59528;59.082;37.926;2022-07-22T12:20:44;5.25;;;4.75;;
71696;SDS011;59528;59.082;37.926;2022-07-22T12:23:10;5.53;;;4.82;;
71696;SDS011;59528;59.082;37.926;2022-07-22T12:25:49;8.38;;;4.78;;
71696;SDS011;59528;59.082;37.926;2022-07-22T12:28:14;8.93;;;5.40;;
71696;SDS011;59528;59.082;37.926;2022-07-22T12:30:40;10.95;;;5.80;;
71696;SDS011;59528;59.082;37.926;2022-07-22T12:33:12;8.23;;;5.47;;
71696;SDS011;59528;59.082;37.926;2022-07-22T12:35:38;6.65;;;5.82;;
71696;SDS011;59528;59.082;37.926;2022-07-22T12:38:07;11.85;;;5.80;;
71696;SDS011;59528;59.082;37.926;2022-07-22T12:40:33;6.85;;;5.45;;
71696;SDS011;59528;59.082;37.926;2022-07-22T12:43:09;9.85;;;6.57;;
71696;SDS011;59528;59.082;37.926;2022-07-22T12:45:37;7.57;;;5.88;;
71696;SDS011;59528;59.082;37.926;2022-07-22T12:50:33;7.63;;;5.70;;
71696;SDS011;59528;59.082;37.926;2022-07-22T12:55:34;7.07;;;6.38;;
71696;SDS011;59528;59.082;37.926;2022-07-22T12:58:00;9.70;;;7.80;;
71696;SDS011;59528;59.082;37.926;2022-07-22T13:00:27;11.27;;;8.00;;
71696;SDS011;59528;59.082;37.926;2022-07-22T13:02:53;12.80;;;8.40;;
71696;SDS011;59528;59.082;37.926;2022-07-22T13:05:20;13.20;;;8.32;;
71696;SDS011;59528;59.082;37.926;2022-07-22T13:07:46;11.77;;;7.78;;
71696;SDS011;59528;59.082;37.926;2022-07-22T13:10:12;10.75;;;7.70;;
71696;SDS011;59528;59.082;37.926;2022-07-22T13:12:38;11.05;;;7.47;;
71696;SDS011;59528;59.082;37.926;2022-07-22T13:15:04;9.20;;;7.28;;
71696;SDS011;59528;59.082;37.926;2022-07-22T13:17:30;14.45;;;7.15;;
71696;SDS011;59528;59.082;37.926;2022-07-22T13:19:56;7.63;;;6.53;;
71696;SDS011;59528;59.082;37.926;2022-07-22T13:22:22;9.35;;;6.53;;
71696;SDS011;59528;59.082;37.926;2022-07-22T13:24:48;11.32;;;6.60;;
71696;SDS011;59528;59.082;37.926;2022-07-22T13:27:14;9.70;;;5.97;;
71696;SDS011;59528;59.082;37.926;2022-07-22T13:29:39;7.35;;;5.95;;
71696;SDS011;59528;59.082;37.926;2022-07-22T13:32:05;11.40;;;6.13;;
71696;SDS011;59528;59.082;37.926;2022-07-22T13:34:31;9.95;;;6.13;;
71696;SDS011;59528;59.082;37.926;2022-07-22T13:36:57;8.52;;;5.65;;
71696;SDS011;59528;59.082;37.926;2022-07-22T13:39:22;6.55;;;5.55;;
71696;SDS011;59528;59.082;37.926;2022-07-22T13:41:48;10.73;;;5.85;;
71696;SDS011;59528;59.082;37.926;2022-07-22T13:44:14;8.38;;;5.88;;
71696;SDS011;59528;59.082;37.926;2022-07-22T13:46:39;8.32;;;5.55;;
71696;SDS011;59528;59.082;37.926;2022-07-22T13:49:08;8.02;;;5.75;;
71696;SDS011;59528;59.082;37.926;2022-07-22T13:51:33;8.35;;;5.85;;
71696;SDS011;59528;59.082;37.926;2022-07-22T13:53:59;6.53;;;5.93;;
71696;SDS011;59528;59.082;37.926;2022-07-22T13:56:25;9.15;;;5.25;;
71696;SDS011;59528;59.082;37.926;2022-07-22T13:58:50;28.10;;;25.10;;
71696;SDS011;59528;59.082;37.926;2022-07-22T14:01:16;12.65;;;11.30;;
71696;SDS011;59528;59.082;37.926;2022-07-22T14:03:42;9.35;;;8.15;;
71696;SDS011;59528;59.082;37.926;2022-07-22T14:06:08;8.82;;;6.90;;
71696;SDS011;59528;59.082;37.926;2022-07-22T14:08:34;7.25;;;6.53;;
71696;SDS011;59528;59.082;37.926;2022-07-22T14:11:01;6.70;;;6.00;;
71696;SDS011;59528;59.082;37.926;2022-07-22T14:13:27;6.93;;;6.32;;
71696;SDS011;59528;59.082;37.926;2022-07-22T14:15:53;8.27;;;5.97;;
71696;SDS011;59528;59.082;37.926;2022-07-22T14:18:18;7.97;;;6.40;;
71696;SDS011;59528;59.082;37.926;2022-07-22T14:20:44;7.70;;;6.25;;
71696;SDS011;59528;59.082;37.926;2022-07-22T14:23:13;8.07;;;5.63;;
71696;SDS011;59528;59.082;37.926;2022-07-22T14:25:40;8.18;;;6.22;;
71696;SDS011;59528;59.082;37.926;2022-07-22T14:28:06;6.65;;;5.95;;
71696;SDS011;59528;59.082;37.926;2022-07-22T14:30:32;7.20;;;6.15;;
71696;SDS011;59528;59.082;37.926;2022-07-22T14:32:58;8.85;;;6.07;;
71696;SDS011;59528;59.082;37.926;2022-07-22T14:35:24;6.30;;;5.80;;
71696;SDS011;59528;59.082;37.926;2022-07-22T14:37:50;7.18;;;6.32;;
71696;SDS011;59528;59.082;37.926;2022-07-22T14:40:16;8.63;;;6.60;;
71696;SDS011;59528;59.082;37.926;2022-07-22T14:42:42;6.90;;;6.30;;
71696;SDS011;59528;59.082;37.926;2022-07-22T14:45:08;7.57;;;6.85;;
71696;SDS011;59528;59.082;37.926;2022-07-22T14:47:35;7.20;;;6.50;;
71696;SDS011;59528;59.082;37.926;2022-07-22T14:50:01;6.72;;;6.13;;
71696;SDS011;59528;59.082;37.926;2022-07-22T14:52:26;6.70;;;6.10;;
71696;SDS011;59528;59.082;37.926;2022-07-22T14:54:52;8.10;;;5.70;;
71696;SDS011;59528;59.082;37.926;2022-07-22T14:57:20;6.32;;;5.72;;
71696;SDS011;59528;59.082;37.926;2022-07-22T14:59:46;6.45;;;5.85;;